createdAt,value
2023-04-29T00:00:18.015Z,100800.98
2023-04-29T00:03:12.393Z,100801.11
2023-04-29T00:05:45.864Z,100799.23
2023-04-29T00:08:19.388Z,100798.34
2023-04-29T00:10:53.399Z,100795.66
2023-04-29T00:13:31.412Z,100797.83
2023-04-29T00:16:13.990Z,100792.41
2023-04-29T00:18:45.775Z,100792.29
2023-04-29T00:21:32.701Z,100793.95
2023-04-29T00:24:02.676Z,100794.78
2023-04-29T00:26:35.447Z,100797.09
2023-04-29T00:29:07.270Z,100792.77
2023-04-29T00:31:39.942Z,100795.05
2023-04-29T00:34:11.598Z,100792.73
2023-04-29T00:36:55.845Z,100787.98
2023-04-29T00:39:33.515Z,100784.90
2023-04-29T00:42:12.302Z,100786.41
2023-04-29T00:44:48.321Z,100780.09
2023-04-29T00:47:20.174Z,100780.20
2023-04-29T00:50:00.786Z,100772.96
2023-04-29T00:52:33.529Z,100773.44
2023-04-29T00:55:20.246Z,100772.30
2023-04-29T00:57:53.024Z,100771.27
2023-04-29T01:00:26.447Z,100769.11
2023-04-29T01:02:59.178Z,100770.61
2023-04-29T01:05:32.808Z,100770.52
2023-04-29T01:08:27.223Z,100768.42
2023-04-29T01:11:09.009Z,100769.41
2023-04-29T01:13:50.236Z,100767.13
2023-04-29T01:16:31.524Z,100768.70
2023-04-29T01:19:19.029Z,100770.44
2023-04-29T01:21:52.006Z,100771.71
2023-04-29T01:24:29.317Z,100771.31
2023-04-29T01:27:14.206Z,100772.58
2023-04-29T01:30:12.741Z,100772.94
2023-04-29T01:32:55.167Z,100767.62
2023-04-29T01:35:46.629Z,100766.09
2023-04-29T01:38:35.165Z,100769.86
2023-04-29T01:41:14.803Z,100769.81
2023-04-29T01:43:52.504Z,100769.20
2023-04-29T01:46:31.338Z,100771.41
2023-04-29T01:49:05.902Z,100771.53
2023-04-29T01:51:37.994Z,100770.10
2023-04-29T01:54:11.288Z,100769.30
2023-04-29T01:56:52.776Z,100770.49
2023-04-29T01:59:41.977Z,100771.81
2023-04-29T02:02:37.174Z,100767.80
2023-04-29T02:05:19.868Z,100764.72
2023-04-29T02:07:57.636Z,100763.48
2023-04-29T02:10:38.522Z,100766.27
2023-04-29T02:13:32.003Z,100760.63
2023-04-29T02:16:12.292Z,100760.80
2023-04-29T02:18:55.893Z,100760.51
2023-04-29T02:21:28.066Z,100758.23
2023-04-29T02:23:59.722Z,100753.35
2023-04-29T02:26:32.630Z,100753.98
2023-04-29T02:29:06.191Z,100750.30
2023-04-29T02:31:40.210Z,100750.63
2023-04-29T02:34:13.827Z,100749.83
2023-04-29T02:36:47.172Z,100742.85
2023-04-29T02:39:20.983Z,100744.69
2023-04-29T02:42:02.231Z,100736.86
2023-04-29T02:44:36.309Z,100729.09
2023-04-29T02:47:11.922Z,100728.73
2023-04-29T02:49:49.816Z,100729.19
2023-04-29T02:52:45.470Z,100727.22
2023-04-29T02:55:19.764Z,100721.86
2023-04-29T02:58:00.966Z,100718.90
2023-04-29T03:00:34.580Z,100720.84
2023-04-29T03:03:09.609Z,100722.63
2023-04-29T03:05:44.014Z,100724.04
2023-04-29T03:08:17.689Z,100722.28
2023-04-29T03:10:53.252Z,100724.69
2023-04-29T03:13:27.993Z,100728.14
2023-04-29T03:16:00.953Z,100730.86
2023-04-29T03:18:30.992Z,100731.52
2023-04-29T03:21:09.388Z,100735.30
2023-04-29T03:23:44.329Z,100733.40
2023-04-29T03:26:19.334Z,100732.47
2023-04-29T03:28:51.719Z,100732.24
2023-04-29T03:31:30.263Z,100729.87
2023-04-29T03:34:01.964Z,100729.52
2023-04-29T03:36:34.868Z,100731.25
2023-04-29T03:39:19.673Z,100731.40
2023-04-29T03:41:55.975Z,100732.73
2023-04-29T03:44:30.756Z,100730.55
2023-04-29T03:47:08.553Z,100725.55
2023-04-29T03:49:43.300Z,100725.83
2023-04-29T03:52:18.375Z,100726.22
2023-04-29T03:54:51.297Z,100725.71
2023-04-29T03:57:25.111Z,100725.83
2023-04-29T04:00:03.699Z,100725.08
2023-04-29T04:02:54.449Z,100721.04
2023-04-29T04:05:30.507Z,100716.63
2023-04-29T04:08:11.401Z,100716.39
2023-04-29T04:11:15.170Z,100720.91
2023-04-29T04:13:52.126Z,100717.75
2023-04-29T04:16:25.970Z,100714.61
2023-04-29T04:18:57.674Z,100717.10
2023-04-29T04:21:29.751Z,100718.48
2023-04-29T04:24:10.781Z,100716.89
2023-04-29T04:26:43.909Z,100717.33
2023-04-29T04:29:23.399Z,100717.20
2023-04-29T04:32:13.904Z,100716.05
2023-04-29T04:34:46.893Z,100714.17
2023-04-29T04:37:20.241Z,100717.02
2023-04-29T04:39:55.850Z,100714.92
2023-04-29T04:42:28.344Z,100715.85
2023-04-29T04:45:01.486Z,100714.33
2023-04-29T04:47:53.686Z,100719.88
2023-04-29T04:50:36.225Z,100719.35
2023-04-29T04:53:08.262Z,100721.45
2023-04-29T04:55:54.521Z,100720.95
2023-04-29T04:58:31.406Z,100718.96
2023-04-29T05:01:06.278Z,100722.20
2023-04-29T05:03:58.054Z,100717.50
2023-04-29T05:06:37.908Z,100724.08
2023-04-29T05:09:09.185Z,100727.98
2023-04-29T05:11:44.108Z,100722.71
2023-04-29T05:14:18.024Z,100723.99
2023-04-29T05:16:51.829Z,100724.50
2023-04-29T05:19:23.879Z,100727.73
2023-04-29T05:21:56.770Z,100726.35
2023-04-29T05:24:31.744Z,100721.55
2023-04-29T05:27:06.187Z,100721.34
2023-04-29T05:29:38.951Z,100723.64
2023-04-29T05:32:14.060Z,100725.49
2023-04-29T05:34:47.683Z,100721.13
2023-04-29T05:37:19.434Z,100722.67
2023-04-29T05:40:10.737Z,100719.52
2023-04-29T05:42:42.828Z,100715.63
2023-04-29T05:45:16.746Z,100716.92
2023-04-29T05:47:54.402Z,100711.92
2023-04-29T05:50:27.316Z,100716.95
2023-04-29T05:52:58.889Z,100714.29
2023-04-29T05:55:33.407Z,100712.33
2023-04-29T05:58:08.376Z,100716.05
2023-04-29T06:00:44.697Z,100712.40
2023-04-29T06:03:21.296Z,100706.66
2023-04-29T06:06:00.570Z,100711.75
2023-04-29T06:08:55.363Z,100713.41
2023-04-29T06:11:32.661Z,100713.73
2023-04-29T06:14:06.929Z,100717.69
2023-04-29T06:16:39.587Z,100719.15
2023-04-29T06:19:15.042Z,100717.71
2023-04-29T06:21:47.826Z,100715.58
2023-04-29T06:24:20.602Z,100718.42
2023-04-29T06:26:54.099Z,100715.95
2023-04-29T06:29:27.172Z,100716.74
2023-04-29T06:32:01.263Z,100717.39
2023-04-29T06:34:34.139Z,100716.23
2023-04-29T06:37:43.704Z,100715.05
2023-04-29T06:40:47.469Z,100713.58
2023-04-29T06:43:43.375Z,100713.30
2023-04-29T06:46:33.786Z,100712.60
2023-04-29T06:49:10.143Z,100708.23
2023-04-29T06:51:43.914Z,100709.30
2023-04-29T06:54:16.811Z,100707.73
2023-04-29T06:56:51.356Z,100705.13
2023-04-29T06:59:24.526Z,100709.67
2023-04-29T07:01:58.632Z,100703.91
2023-04-29T07:04:31.043Z,100704.11
2023-04-29T07:07:03.719Z,100704.03
2023-04-29T07:09:38.086Z,100702.16
2023-04-29T07:12:10.597Z,100698.10
2023-04-29T07:14:43.569Z,100697.14
2023-04-29T07:17:20.212Z,100694.27
2023-04-29T07:19:53.518Z,100696.38
2023-04-29T07:22:26.750Z,100698.57
2023-04-29T07:25:00.070Z,100698.48
2023-04-29T07:27:32.801Z,100699.98
2023-04-29T07:30:06.584Z,100699.08
2023-04-29T07:32:40.669Z,100703.28
2023-04-29T07:35:13.463Z,100708.08
2023-04-29T07:37:47.123Z,100704.94
2023-04-29T07:40:19.251Z,100706.73
2023-04-29T07:42:52.876Z,100706.78
2023-04-29T07:45:27.246Z,100707.73
2023-04-29T07:48:02.205Z,100707.66
2023-04-29T07:50:38.333Z,100705.94
2023-04-29T07:53:11.413Z,100706.91
2023-04-29T07:55:44.603Z,100708.88
2023-04-29T07:58:19.257Z,100707.57
2023-04-29T08:00:51.058Z,100709.82
2023-04-29T08:03:23.694Z,100711.42
2023-04-29T08:06:03.183Z,100710.84
2023-04-29T08:08:37.678Z,100708.17
2023-04-29T08:11:10.885Z,100707.61
2023-04-29T08:13:45.059Z,100711.65
2023-04-29T08:16:17.753Z,100715.27
2023-04-29T08:18:48.544Z,100714.56
2023-04-29T08:21:21.605Z,100713.16
2023-04-29T08:23:54.655Z,100713.23
2023-04-29T08:26:26.911Z,100712.73
2023-04-29T08:28:57.885Z,100710.95
2023-04-29T08:31:30.977Z,100715.45
2023-04-29T08:34:03.407Z,100719.94
2023-04-29T08:36:45.128Z,100723.79
2023-04-29T08:39:18.565Z,100722.09
2023-04-29T08:41:50.902Z,100724.08
2023-04-29T08:44:23.257Z,100726.48
2023-04-29T08:46:58.692Z,100726.25
2023-04-29T08:49:32.485Z,100720.09
2023-04-29T08:52:04.913Z,100722.82
2023-04-29T08:54:39.038Z,100725.11
2023-04-29T08:57:14.775Z,100728.20
2023-04-29T08:59:52.486Z,100729.92
2023-04-29T09:02:25.930Z,100730.44
2023-04-29T09:05:06.063Z,100730.53
2023-04-29T09:07:38.164Z,100732.14
2023-04-29T09:10:15.714Z,100732.30
2023-04-29T09:12:47.299Z,100737.59
2023-04-29T09:15:19.613Z,100732.77
2023-04-29T09:17:52.762Z,100733.64
2023-04-29T09:20:33.347Z,100735.52
2023-04-29T09:23:05.839Z,100736.59
2023-04-29T09:25:38.293Z,100738.11
2023-04-29T09:28:19.057Z,100739.79
2023-04-29T09:30:53.707Z,100738.45
2023-04-29T09:33:28.510Z,100736.70
2023-04-29T09:36:02.481Z,100738.77
2023-04-29T09:38:35.144Z,100738.34
2023-04-29T09:41:17.995Z,100739.80
2023-04-29T09:44:09.539Z,100736.89
2023-04-29T09:46:42.470Z,100735.30
2023-04-29T09:49:27.687Z,100734.88
2023-04-29T09:52:02.721Z,100727.65
2023-04-29T09:54:35.011Z,100731.10
2023-04-29T09:57:14.384Z,100729.13
2023-04-29T09:59:47.083Z,100724.00
2023-04-29T10:02:21.063Z,100723.34
2023-04-29T10:04:58.383Z,100723.44
2023-04-29T10:07:32.689Z,100731.10
2023-04-29T10:10:06.598Z,100734.79
2023-04-29T10:12:40.299Z,100733.47
2023-04-29T10:15:20.899Z,100733.02
2023-04-29T10:17:59.588Z,100738.30
2023-04-29T10:20:32.123Z,100737.02
2023-04-29T10:23:07.391Z,100732.90
2023-04-29T10:25:40.716Z,100734.27
2023-04-29T10:28:16.248Z,100724.13
2023-04-29T10:30:51.074Z,100721.20
2023-04-29T10:33:23.413Z,100721.23
2023-04-29T10:35:59.939Z,100719.29
2023-04-29T10:38:39.688Z,100715.77
2023-04-29T10:41:21.719Z,100717.80
2023-04-29T10:43:59.067Z,100715.40
2023-04-29T10:46:33.315Z,100715.77
2023-04-29T10:49:06.032Z,100711.91
2023-04-29T10:51:45.257Z,100708.84
2023-04-29T10:54:25.336Z,100703.65
2023-04-29T10:56:56.751Z,100701.70
2023-04-29T10:59:48.500Z,100696.23
2023-04-29T11:02:21.375Z,100693.90
2023-04-29T11:05:11.797Z,100695.43
2023-04-29T11:07:44.499Z,100689.80
2023-04-29T11:10:20.483Z,100692.18
2023-04-29T11:13:12.247Z,100690.38
2023-04-29T11:15:45.965Z,100690.44
2023-04-29T11:18:18.447Z,100687.27
2023-04-29T11:21:15.632Z,100687.60
2023-04-29T11:23:48.719Z,100684.30
2023-04-29T11:26:26.454Z,100680.83
2023-04-29T11:28:59.889Z,100679.11
2023-04-29T11:31:35.405Z,100681.02
2023-04-29T11:34:09.508Z,100680.61
2023-04-29T11:36:42.102Z,100678.46
2023-04-29T11:39:14.447Z,100678.36
2023-04-29T11:41:45.713Z,100673.43
2023-04-29T11:44:25.656Z,100673.16
2023-04-29T11:47:05.618Z,100671.69
2023-04-29T11:49:39.186Z,100672.98
2023-04-29T11:52:13.243Z,100669.85
2023-04-29T11:54:52.384Z,100675.36
2023-04-29T11:57:24.618Z,100672.20
2023-04-29T11:59:56.632Z,100667.14
2023-04-29T12:02:33.105Z,100658.95
2023-04-29T12:05:09.051Z,100658.91
2023-04-29T12:07:42.488Z,100654.91
2023-04-29T12:10:13.972Z,100648.18
2023-04-29T12:12:49.872Z,100645.80
2023-04-29T12:15:23.743Z,100644.52
2023-04-29T12:17:55.221Z,100643.50
2023-04-29T12:20:26.887Z,100640.03
2023-04-29T12:23:09.104Z,100632.94
2023-04-29T12:25:42.008Z,100634.45
2023-04-29T12:28:17.199Z,100631.40
2023-04-29T12:30:51.385Z,100627.02
2023-04-29T12:33:26.003Z,100623.95
2023-04-29T12:35:59.176Z,100618.46
2023-04-29T12:38:34.327Z,100618.69
2023-04-29T12:41:08.007Z,100616.98
2023-04-29T12:43:41.051Z,100613.60
2023-04-29T12:46:14.505Z,100610.40
2023-04-29T12:48:48.670Z,100609.41
2023-04-29T12:51:20.416Z,100606.73
2023-04-29T12:53:53.178Z,100605.15
2023-04-29T12:56:25.349Z,100601.29
2023-04-29T12:58:56.317Z,100597.23
2023-04-29T13:01:29.741Z,100594.45
2023-04-29T13:04:01.705Z,100598.88
2023-04-29T13:06:34.344Z,100597.23
2023-04-29T13:09:18.982Z,100594.60
2023-04-29T13:11:52.950Z,100595.39
2023-04-29T13:14:42.252Z,100589.19
2023-04-29T13:17:17.155Z,100585.57
2023-04-29T13:19:52.527Z,100587.45
2023-04-29T13:22:25.019Z,100580.83
2023-04-29T13:25:13.675Z,100579.73
2023-04-29T13:27:46.710Z,100574.91
2023-04-29T13:30:27.848Z,100574.28
2023-04-29T13:33:09.374Z,100574.78
2023-04-29T13:35:44.507Z,100579.86
2023-04-29T13:38:23.777Z,100575.35
2023-04-29T13:40:56.302Z,100572.60
2023-04-29T13:43:36.606Z,100572.10
2023-04-29T13:46:13.366Z,100569.02
2023-04-29T13:49:17.342Z,100572.32
2023-04-29T13:59:46.745Z,100569.39
2023-04-29T14:02:26.006Z,100571.71
2023-04-29T14:04:59.352Z,100570.96
2023-04-29T14:07:34.630Z,100571.14
2023-04-29T14:10:07.256Z,100568.70
2023-04-29T14:12:39.898Z,100568.61
2023-04-29T14:15:14.195Z,100564.44
2023-04-29T14:17:52.352Z,100564.42
2023-04-29T14:20:23.969Z,100564.27
2023-04-29T14:22:59.102Z,100561.36
2023-04-29T14:25:33.936Z,100559.42
2023-04-29T14:28:06.285Z,100557.91
2023-04-29T14:30:37.387Z,100553.02
2023-04-29T14:33:09.435Z,100548.63
2023-04-29T14:35:42.382Z,100549.05
2023-04-29T14:38:15.592Z,100545.11
2023-04-29T14:40:46.204Z,100545.46
2023-04-29T14:43:16.577Z,100541.42
2023-04-29T14:45:49.261Z,100539.02
2023-04-29T14:48:20.431Z,100536.60
2023-04-29T14:50:53.470Z,100534.38
2023-04-29T14:53:23.648Z,100534.38
2023-04-29T14:55:57.448Z,100536.49
2023-04-29T14:58:29.318Z,100530.98
2023-04-29T15:01:03.702Z,100531.55
2023-04-29T15:06:13.856Z,100534.35
2023-04-29T15:08:47.696Z,100534.06
2023-04-29T15:11:24.037Z,100534.02
2023-04-29T15:13:56.308Z,100535.42
2023-04-29T15:16:29.836Z,100535.76
2023-04-29T15:19:02.260Z,100535.52
2023-04-29T15:21:37.246Z,100534.99
2023-04-29T15:24:12.449Z,100537.91
2023-04-29T15:26:46.002Z,100536.80
2023-04-29T15:29:17.842Z,100541.59
2023-04-29T15:31:49.779Z,100542.44
2023-04-29T15:34:21.873Z,100544.02
2023-04-29T15:36:56.802Z,100541.08
2023-04-29T15:39:31.532Z,100541.08
2023-04-29T15:42:04.575Z,100538.19
2023-04-29T15:44:36.841Z,100539.98
2023-04-29T15:47:10.703Z,100539.42
2023-04-29T15:49:44.680Z,100542.41
2023-04-29T15:52:34.817Z,100545.91
2023-04-29T15:55:08.043Z,100542.48
2023-04-29T15:57:42.604Z,100543.69
2023-04-29T16:00:20.851Z,100546.09
2023-04-29T16:02:54.576Z,100547.81
2023-04-29T16:05:26.715Z,100546.82
2023-04-29T16:07:57.798Z,100544.88
2023-04-29T16:10:30.282Z,100548.09
2023-04-29T16:13:02.093Z,100549.00
2023-04-29T16:15:34.367Z,100547.13
2023-04-29T16:18:09.409Z,100545.59
2023-04-29T16:20:43.280Z,100547.90
2023-04-29T16:23:16.985Z,100548.48
2023-04-29T16:25:51.174Z,100546.79
2023-04-29T16:28:24.589Z,100544.05
2023-04-29T16:30:58.797Z,100544.50
2023-04-29T16:33:32.322Z,100545.35
2023-04-29T16:36:06.000Z,100545.73
2023-04-29T16:38:38.552Z,100545.27
2023-04-29T16:41:10.556Z,100553.95
2023-04-29T16:43:41.801Z,100552.45
2023-04-29T16:46:16.994Z,100555.02
2023-04-29T16:48:52.734Z,100562.13
2023-04-29T16:51:27.440Z,100561.14
2023-04-29T16:53:59.442Z,100560.27
2023-04-29T16:56:31.985Z,100561.17
2023-04-29T16:59:03.705Z,100559.73
2023-04-29T17:01:34.988Z,100563.06
2023-04-29T17:04:08.363Z,100567.46
2023-04-29T17:06:40.186Z,100568.30
2023-04-29T17:09:10.999Z,100570.19
2023-04-29T17:11:44.048Z,100573.52
2023-04-29T17:14:16.517Z,100571.27
2023-04-29T17:16:47.641Z,100572.56
2023-04-29T17:19:20.006Z,100573.53
2023-04-29T17:21:52.936Z,100571.46
2023-04-29T17:24:25.452Z,100570.64
2023-04-29T17:27:01.315Z,100571.77
2023-04-29T17:29:35.311Z,100573.63
2023-04-29T17:32:10.763Z,100575.65
2023-04-29T17:34:42.647Z,100577.86
2023-04-29T17:37:24.902Z,100583.38
2023-04-29T17:40:02.063Z,100582.35
2023-04-29T17:42:34.371Z,100581.88
2023-04-29T17:45:09.679Z,100585.20
2023-04-29T17:47:43.480Z,100584.42
2023-04-29T17:50:16.160Z,100585.08
2023-04-29T17:52:49.105Z,100581.92
2023-04-29T17:55:23.069Z,100582.86
2023-04-29T17:57:56.412Z,100581.66
2023-04-29T18:00:35.121Z,100579.45
2023-04-29T18:03:07.198Z,100583.41
2023-04-29T18:05:38.589Z,100581.88
2023-04-29T18:08:09.961Z,100582.29
2023-04-29T18:10:52.684Z,100583.16
2023-04-29T18:13:27.350Z,100581.73
2023-04-29T18:16:04.074Z,100584.06
2023-04-29T18:18:37.460Z,100584.48
2023-04-29T18:21:10.984Z,100581.14
2023-04-29T18:23:41.998Z,100589.38
2023-04-29T18:26:15.505Z,100590.51
2023-04-29T18:28:49.138Z,100601.30
2023-04-29T18:31:31.662Z,100611.96
2023-04-29T18:34:05.877Z,100614.67
2023-04-29T18:36:37.361Z,100620.90
2023-04-29T18:39:09.743Z,100626.86
2023-04-29T18:41:42.154Z,100626.44
2023-04-29T18:44:14.468Z,100629.36
2023-04-29T18:46:46.407Z,100633.02
2023-04-29T18:49:18.824Z,100635.88
2023-04-29T18:51:50.537Z,100643.38
2023-04-29T18:54:23.464Z,100651.27
2023-04-29T18:56:56.508Z,100651.26
2023-04-29T18:59:29.744Z,100653.86
2023-04-29T19:02:01.961Z,100659.65
2023-04-29T19:04:38.335Z,100678.86
2023-04-29T19:07:09.911Z,100694.13
2023-04-29T19:09:43.287Z,100696.30
2023-04-29T19:12:16.587Z,100705.71
2023-04-29T19:14:51.422Z,100720.23
2023-04-29T19:17:23.201Z,100723.29
2023-04-29T19:19:55.638Z,100731.27
2023-04-29T19:22:29.528Z,100737.88
2023-04-29T19:25:03.902Z,100740.67
2023-04-29T19:27:37.328Z,100739.95
2023-04-29T19:30:16.621Z,100746.29
2023-04-29T19:32:49.782Z,100751.09
2023-04-29T19:35:21.606Z,100755.27
2023-04-29T19:37:55.746Z,100754.27
2023-04-29T19:40:27.065Z,100757.02
2023-04-29T19:43:00.917Z,100759.98
2023-04-29T19:45:33.388Z,100761.31
2023-04-29T19:48:07.204Z,100762.85
2023-04-29T19:50:42.228Z,100757.55
2023-04-29T19:53:15.000Z,100759.34
2023-04-29T19:55:51.708Z,100767.31
2023-04-29T19:58:25.476Z,100766.23
2023-04-29T20:00:56.652Z,100767.13
2023-04-29T20:03:28.698Z,100768.78
2023-04-29T20:06:01.165Z,100769.89
2023-04-29T20:08:34.839Z,100773.63
2023-04-29T20:11:09.342Z,100780.38
2023-04-29T20:13:41.994Z,100786.32
2023-04-29T20:16:15.428Z,100788.40
2023-04-29T20:18:51.322Z,100796.42
2023-04-29T20:21:23.271Z,100799.02
2023-04-29T20:23:55.757Z,100804.78
2023-04-29T20:26:28.378Z,100805.72
2023-04-29T20:29:01.928Z,100809.92
2023-04-29T20:31:34.207Z,100817.20
2023-04-29T20:34:06.568Z,100817.14
2023-04-29T20:36:39.529Z,100824.50
2023-04-29T20:39:12.189Z,100827.02
2023-04-29T20:41:45.586Z,100826.71
2023-04-29T20:44:16.244Z,100826.53
2023-04-29T20:46:47.581Z,100833.55
2023-04-29T20:49:21.552Z,100839.10
2023-04-29T20:51:53.589Z,100840.20
2023-04-29T20:54:26.681Z,100843.38
2023-04-29T20:56:59.559Z,100843.54
2023-04-29T20:59:32.071Z,100844.41
2023-04-29T21:02:03.226Z,100842.19
2023-04-29T21:04:36.097Z,100848.27
2023-04-29T21:07:10.728Z,100850.35
2023-04-29T21:09:44.015Z,100855.54
2023-04-29T21:12:16.152Z,100856.40
2023-04-29T21:14:49.072Z,100860.89
2023-04-29T21:17:22.290Z,100865.25
2023-04-29T21:19:56.194Z,100870.68
2023-04-29T21:22:27.635Z,100871.92
2023-04-29T21:24:58.971Z,100878.43
2023-04-29T21:27:31.711Z,100878.64
2023-04-29T21:30:06.500Z,100885.46
2023-04-29T21:32:39.032Z,100892.63
2023-04-29T21:35:11.956Z,100896.09
2023-04-29T21:37:46.403Z,100899.19
2023-04-29T21:40:22.607Z,100900.65
2023-04-29T21:42:56.222Z,100905.23
2023-04-29T21:45:27.746Z,100910.36
2023-04-29T21:48:06.165Z,100914.33
2023-04-29T21:50:38.983Z,100916.70
2023-04-29T21:53:13.193Z,100916.96
2023-04-29T21:55:46.902Z,100918.46
2023-04-29T21:58:20.344Z,100918.39
2023-04-29T22:00:59.297Z,100923.83
2023-04-29T22:03:30.061Z,100925.62
2023-04-29T22:06:02.171Z,100924.33
2023-04-29T22:08:36.350Z,100930.08
2023-04-29T22:11:08.979Z,100932.66
2023-04-29T22:13:42.943Z,100939.21
2023-04-29T22:16:13.464Z,100942.69
2023-04-29T22:18:45.703Z,100946.56
2023-04-29T22:21:19.811Z,100947.70
2023-04-29T22:23:52.964Z,100951.63
2023-04-29T22:26:28.055Z,100953.58
2023-04-29T22:28:59.633Z,100953.84
2023-04-29T22:31:34.456Z,100958.02
2023-04-29T22:34:09.093Z,100959.60
2023-04-29T22:36:43.128Z,100961.96
2023-04-29T22:39:18.205Z,100967.77
2023-04-29T22:41:50.112Z,100977.66
2023-04-29T22:44:21.940Z,100982.17
2023-04-29T22:46:55.706Z,100987.96
2023-04-29T22:49:28.337Z,100989.16
2023-04-29T22:52:02.171Z,100992.63
2023-04-29T22:54:35.948Z,100995.41
2023-04-29T22:57:08.419Z,100995.20
2023-04-29T22:59:40.379Z,101002.41
2023-04-29T23:02:12.440Z,101003.58
2023-04-29T23:04:44.839Z,101009.42
2023-04-29T23:07:18.632Z,101010.78
2023-04-29T23:09:52.459Z,101015.05
2023-04-29T23:12:25.678Z,101011.77
2023-04-29T23:14:58.194Z,101011.68
2023-04-29T23:17:30.436Z,101017.39
2023-04-29T23:20:02.654Z,101018.52
2023-04-29T23:22:37.081Z,101017.40
2023-04-29T23:25:11.753Z,101024.05
2023-04-29T23:27:44.218Z,101027.29
2023-04-29T23:30:14.203Z,101031.33
2023-04-29T23:32:44.300Z,101037.67
2023-04-29T23:35:17.626Z,101036.70
2023-04-29T23:37:51.368Z,101034.92
2023-04-29T23:40:23.387Z,101035.34
2023-04-29T23:42:56.565Z,101036.50
2023-04-29T23:45:29.782Z,101041.39
2023-04-29T23:48:01.755Z,101043.61
2023-04-29T23:50:33.850Z,101044.09
2023-04-29T23:53:09.492Z,101049.14
2023-04-29T23:55:41.010Z,101044.92
2023-04-29T23:58:12.669Z,101047.30
